createdAt,value
2023-03-17T00:02:10.764Z,100821.10
2023-03-17T00:04:39.625Z,100827.45
2023-03-17T00:07:08.911Z,100825.29
2023-03-17T00:09:37.391Z,100819.45
2023-03-17T00:12:11.098Z,100821.27
2023-03-17T00:14:39.695Z,100818.80
2023-03-17T00:17:11.899Z,100810.49
2023-03-17T00:19:41.656Z,100813.70
2023-03-17T00:22:38.307Z,100811.87
2023-03-17T00:25:18.970Z,100810.49
2023-03-17T00:27:47.448Z,100811.65
2023-03-17T00:30:17.213Z,100811.35
2023-03-17T00:32:50.091Z,100817.17
2023-03-17T00:35:22.097Z,100817.11
2023-03-17T00:37:53.037Z,100815.44
2023-03-17T00:40:31.407Z,100814.34
2023-03-17T00:43:03.724Z,100817.73
2023-03-17T00:45:32.815Z,100811.05
2023-03-17T00:48:01.621Z,100808.17
2023-03-17T00:50:30.570Z,100803.48
2023-03-17T00:52:59.384Z,100807.19
2023-03-17T00:55:28.740Z,100802.53
2023-03-17T00:57:57.267Z,100794.75
2023-03-17T01:00:30.060Z,100787.04
2023-03-17T01:02:58.835Z,100776.57
2023-03-17T01:05:29.983Z,100765.19
2023-03-17T01:07:59.400Z,100760.30
2023-03-17T01:10:29.681Z,100762.92
2023-03-17T01:12:59.412Z,100755.11
2023-03-17T01:15:31.923Z,100753.05
2023-03-17T01:18:02.046Z,100743.46
2023-03-17T01:20:34.999Z,100733.67
2023-03-17T01:23:04.517Z,100726.67
2023-03-17T01:25:34.130Z,100726.73
2023-03-17T01:28:02.586Z,100727.77
2023-03-17T01:30:39.592Z,100728.37
2023-03-17T01:33:09.773Z,100736.47
2023-03-17T01:35:39.207Z,100735.77
2023-03-17T01:38:09.007Z,100736.95
2023-03-17T01:40:43.111Z,100739.46
2023-03-17T01:43:11.697Z,100737.07
2023-03-17T01:46:18.190Z,100732.14
2023-03-17T01:49:06.944Z,100723.89
2023-03-17T01:52:06.535Z,100726.06
2023-03-17T01:54:53.988Z,100720.73
2023-03-17T01:57:33.570Z,100715.02
2023-03-17T02:00:16.422Z,100712.45
2023-03-17T02:02:47.281Z,100718.50
2023-03-17T02:05:19.116Z,100725.40
2023-03-17T02:07:47.908Z,100729.67
2023-03-17T02:10:18.302Z,100735.16
2023-03-17T02:12:50.922Z,100730.03
2023-03-17T02:15:20.158Z,100720.55
2023-03-17T02:17:49.100Z,100715.47
2023-03-17T02:20:17.603Z,100718.52
2023-03-17T02:22:49.953Z,100723.11
2023-03-17T02:25:20.413Z,100719.48
2023-03-17T02:27:51.877Z,100709.38
2023-03-17T02:30:24.219Z,100702.00
2023-03-17T02:32:53.155Z,100700.31
2023-03-17T02:35:23.734Z,100690.20
2023-03-17T02:37:52.311Z,100692.44
2023-03-17T02:40:23.547Z,100689.56
2023-03-17T02:42:52.537Z,100683.36
2023-03-17T02:45:21.323Z,100686.73
2023-03-17T02:47:51.880Z,100689.32
2023-03-17T02:50:26.303Z,100694.27
2023-03-17T02:52:55.086Z,100700.69
2023-03-17T02:55:23.670Z,100697.77
2023-03-17T02:57:52.547Z,100695.79
2023-03-17T03:00:21.952Z,100696.67
2023-03-17T03:02:53.267Z,100701.05
2023-03-17T03:05:21.989Z,100698.56
2023-03-17T03:07:51.823Z,100699.14
2023-03-17T03:10:20.374Z,100696.65
2023-03-17T03:12:49.078Z,100690.40
2023-03-17T03:15:18.154Z,100691.20
2023-03-17T03:17:47.056Z,100689.48
2023-03-17T03:20:15.847Z,100689.05
2023-03-17T03:22:45.649Z,100687.45
2023-03-17T03:25:14.349Z,100689.38
2023-03-17T03:27:43.231Z,100688.73
2023-03-17T03:30:12.527Z,100684.27
2023-03-17T03:32:41.228Z,100675.06
2023-03-17T03:35:11.128Z,100678.29
2023-03-17T03:37:39.595Z,100680.66
2023-03-17T03:40:09.528Z,100674.35
2023-03-17T03:42:37.912Z,100672.77
2023-03-17T03:45:07.304Z,100672.81
2023-03-17T03:47:36.284Z,100668.24
2023-03-17T03:50:05.337Z,100662.78
2023-03-17T03:52:33.768Z,100667.20
2023-03-17T03:55:02.641Z,100667.30
2023-03-17T03:57:31.224Z,100663.84
2023-03-17T03:59:59.811Z,100656.29
2023-03-17T04:02:28.480Z,100646.48
2023-03-17T04:04:57.651Z,100648.43
2023-03-17T04:07:26.484Z,100660.20
2023-03-17T04:09:55.381Z,100660.73
2023-03-17T04:12:23.948Z,100657.56
2023-03-17T04:14:52.542Z,100655.46
2023-03-17T04:17:21.216Z,100655.95
2023-03-17T04:19:49.702Z,100652.18
2023-03-17T04:22:18.503Z,100645.45
2023-03-17T04:24:47.371Z,100639.84
2023-03-17T04:27:15.962Z,100637.86
2023-03-17T04:29:44.667Z,100642.42
2023-03-17T04:32:13.811Z,100643.73
2023-03-17T04:34:42.935Z,100648.45
2023-03-17T04:37:12.142Z,100645.38
2023-03-17T04:39:40.826Z,100643.67
2023-03-17T04:42:09.830Z,100645.55
2023-03-17T04:44:38.525Z,100649.95
2023-03-17T04:47:08.123Z,100649.56
2023-03-17T04:49:36.802Z,100648.83
2023-03-17T04:52:05.637Z,100646.63
2023-03-17T04:54:34.196Z,100647.45
2023-03-17T04:57:02.862Z,100649.96
2023-03-17T04:59:31.745Z,100647.45
2023-03-17T05:02:00.462Z,100648.70
2023-03-17T05:04:31.902Z,100651.90
2023-03-17T05:07:01.597Z,100651.16
2023-03-17T05:09:30.191Z,100648.67
2023-03-17T05:11:58.756Z,100646.37
2023-03-17T05:14:27.642Z,100647.21
2023-03-17T05:16:56.164Z,100644.96
2023-03-17T05:19:24.823Z,100640.56
2023-03-17T05:21:53.695Z,100645.17
2023-03-17T05:24:22.390Z,100642.83
2023-03-17T05:26:51.282Z,100639.07
2023-03-17T05:29:19.841Z,100638.99
2023-03-17T05:31:48.968Z,100635.64
2023-03-17T05:34:17.843Z,100633.06
2023-03-17T05:36:46.920Z,100634.60
2023-03-17T05:39:15.417Z,100633.30
2023-03-17T05:41:44.001Z,100631.83
2023-03-17T05:44:12.688Z,100631.17
2023-03-17T05:46:41.578Z,100633.55
2023-03-17T05:49:10.481Z,100637.54
2023-03-17T05:51:39.185Z,100637.38
2023-03-17T05:54:09.201Z,100638.48
2023-03-17T05:56:38.162Z,100636.95
2023-03-17T05:59:06.862Z,100635.42
2023-03-17T06:01:36.387Z,100640.25
2023-03-17T06:04:05.050Z,100643.86
2023-03-17T06:06:34.443Z,100642.28
2023-03-17T06:09:03.253Z,100642.89
2023-03-17T06:11:31.807Z,100644.96
2023-03-17T06:14:00.407Z,100651.00
2023-03-17T06:16:31.338Z,100655.52
2023-03-17T06:19:00.327Z,100654.42
2023-03-17T06:21:29.032Z,100653.40
2023-03-17T06:23:57.497Z,100652.29
2023-03-17T06:26:26.792Z,100640.75
2023-03-17T06:28:55.369Z,100638.38
2023-03-17T06:31:24.305Z,100635.64
2023-03-17T06:33:52.845Z,100640.10
2023-03-17T06:36:22.248Z,100640.14
2023-03-17T06:38:51.345Z,100643.23
2023-03-17T06:41:20.446Z,100647.19
2023-03-17T06:43:49.024Z,100645.60
2023-03-17T06:46:18.058Z,100641.87
2023-03-17T06:48:46.806Z,100639.11
2023-03-17T06:51:15.478Z,100642.14
2023-03-17T06:53:44.493Z,100635.65
2023-03-17T06:56:28.889Z,100636.33
2023-03-17T06:58:59.259Z,100642.69
2023-03-17T07:01:27.894Z,100637.07
2023-03-17T07:03:56.943Z,100633.82
2023-03-17T07:06:25.522Z,100632.59
2023-03-17T07:08:54.099Z,100634.61
2023-03-17T07:11:24.022Z,100634.10
2023-03-17T07:13:53.004Z,100638.96
2023-03-17T07:16:21.746Z,100633.65
2023-03-17T07:18:51.119Z,100626.32
2023-03-17T07:21:19.884Z,100626.05
2023-03-17T07:23:48.482Z,100626.23
2023-03-17T07:26:17.250Z,100628.27
2023-03-17T07:28:45.975Z,100630.94
2023-03-17T07:31:15.290Z,100631.45
2023-03-17T07:33:43.943Z,100626.23
2023-03-17T07:36:13.340Z,100624.37
2023-03-17T07:38:42.018Z,100628.17
2023-03-17T07:41:11.312Z,100615.77
2023-03-17T07:43:39.990Z,100613.18
2023-03-17T07:46:09.589Z,100618.27
2023-03-17T07:48:42.591Z,100614.15
2023-03-17T07:51:16.386Z,100607.30
2023-03-17T07:53:46.322Z,100610.05
2023-03-17T07:56:14.890Z,100611.20
2023-03-17T07:58:44.151Z,100606.72
2023-03-17T08:01:12.979Z,100608.77
2023-03-17T08:03:41.946Z,100611.80
2023-03-17T08:06:10.769Z,100613.56
2023-03-17T08:08:39.663Z,100611.33
2023-03-17T08:11:08.653Z,100614.44
2023-03-17T08:13:37.457Z,100616.64
2023-03-17T08:16:07.606Z,100610.54
2023-03-17T08:18:37.256Z,100607.58
2023-03-17T08:21:06.916Z,100597.93
2023-03-17T08:23:36.018Z,100597.73
2023-03-17T08:26:05.570Z,100589.83
2023-03-17T08:28:37.164Z,100579.89
2023-03-17T08:31:14.485Z,100575.05
2023-03-17T08:33:45.628Z,100573.24
2023-03-17T08:36:14.660Z,100576.65
2023-03-17T08:38:45.211Z,100574.94
2023-03-17T08:41:16.892Z,100569.48
2023-03-17T08:43:46.447Z,100569.41
2023-03-17T08:46:32.483Z,100564.20
2023-03-17T08:49:02.250Z,100564.75
2023-03-17T08:51:34.762Z,100562.09
2023-03-17T08:54:04.328Z,100566.36
2023-03-17T08:56:33.239Z,100568.30
2023-03-17T08:59:02.738Z,100577.38
2023-03-17T09:01:31.958Z,100575.48
2023-03-17T09:04:01.409Z,100577.81
2023-03-17T09:06:30.688Z,100587.15
2023-03-17T09:09:00.856Z,100584.41
2023-03-17T09:11:33.099Z,100591.34
2023-03-17T09:14:01.832Z,100587.94
2023-03-17T09:16:34.487Z,100584.20
2023-03-17T09:19:04.191Z,100580.71
2023-03-17T09:21:33.177Z,100579.20
2023-03-17T09:24:02.677Z,100579.78
2023-03-17T09:26:32.003Z,100582.53
2023-03-17T09:29:02.009Z,100593.95
2023-03-17T09:31:33.002Z,100601.73
2023-03-17T09:34:01.718Z,100590.49
2023-03-17T09:36:30.758Z,100569.67
2023-03-17T09:39:00.433Z,100553.48
2023-03-17T09:42:09.357Z,100550.27
2023-03-17T09:44:54.428Z,100544.79
2023-03-17T09:47:52.905Z,100554.03
2023-03-17T09:50:43.209Z,100578.41
2023-03-17T09:53:18.349Z,100588.70
2023-03-17T09:55:50.903Z,100578.98
2023-03-17T09:58:23.073Z,100569.28
2023-03-17T10:00:52.275Z,100555.70
2023-03-17T10:03:21.401Z,100554.59
2023-03-17T10:05:50.538Z,100554.80
2023-03-17T10:08:32.525Z,100555.60
2023-03-17T10:11:23.880Z,100558.36
2023-03-17T10:13:56.259Z,100556.60
2023-03-17T10:16:38.830Z,100552.23
2023-03-17T10:19:36.423Z,100551.65
2023-03-17T10:22:13.608Z,100549.23
2023-03-17T10:24:47.914Z,100540.65
2023-03-17T10:27:17.748Z,100537.18
2023-03-17T10:29:48.451Z,100532.95
2023-03-17T10:32:17.573Z,100532.01
2023-03-17T10:34:47.901Z,100534.14
2023-03-17T10:37:23.524Z,100533.69
2023-03-17T10:39:57.268Z,100537.25
2023-03-17T10:42:26.718Z,100535.14
2023-03-17T10:45:00.979Z,100539.13
2023-03-17T10:47:36.092Z,100540.16
2023-03-17T10:50:21.221Z,100533.56
2023-03-17T10:52:58.256Z,100536.03
2023-03-17T10:55:52.189Z,100527.26
2023-03-17T10:58:32.085Z,100510.90
2023-03-17T11:01:08.659Z,100499.02
2023-03-17T11:03:40.176Z,100492.64
2023-03-17T11:06:11.899Z,100479.20
2023-03-17T11:08:51.232Z,100471.48
2023-03-17T11:11:32.197Z,100463.48
2023-03-17T11:14:14.985Z,100459.40
2023-03-17T11:16:54.642Z,100463.27
2023-03-17T11:19:30.198Z,100459.81
2023-03-17T11:22:00.292Z,100456.66
2023-03-17T11:24:33.529Z,100452.70
2023-03-17T11:27:29.207Z,100447.73
2023-03-17T11:30:07.288Z,100436.50
2023-03-17T11:32:44.470Z,100438.96
2023-03-17T11:35:34.751Z,100435.86
2023-03-17T11:38:22.346Z,100434.69
2023-03-17T11:40:57.969Z,100427.42
2023-03-17T11:43:54.935Z,100418.77
2023-03-17T11:46:34.107Z,100415.28
2023-03-17T11:49:08.691Z,100412.61
2023-03-17T11:51:59.795Z,100414.21
2023-03-17T11:54:58.124Z,100416.23
2023-03-17T11:58:11.088Z,100412.49
2023-03-17T12:00:51.088Z,100409.05
2023-03-17T12:03:42.309Z,100408.03
2023-03-17T12:06:27.248Z,100400.85
2023-03-17T12:09:04.299Z,100392.92
2023-03-17T12:11:36.688Z,100384.61
2023-03-17T12:14:20.806Z,100378.65
2023-03-17T12:16:57.477Z,100360.80
2023-03-17T12:19:39.841Z,100363.36
2023-03-17T12:22:49.024Z,100348.71
2023-03-17T12:25:28.333Z,100348.14
2023-03-17T12:28:01.831Z,100341.73
2023-03-17T12:30:39.253Z,100343.59
2023-03-17T12:33:18.590Z,100331.55
2023-03-17T12:35:48.548Z,100327.89
2023-03-17T12:38:24.111Z,100321.50
2023-03-17T12:41:11.875Z,100319.54
2023-03-17T12:43:42.829Z,100322.81
2023-03-17T12:46:17.580Z,100330.91
2023-03-17T12:49:35.212Z,100327.26
2023-03-17T12:52:35.161Z,100327.31
2023-03-17T12:55:05.910Z,100321.38
2023-03-17T12:57:44.533Z,100321.29
2023-03-17T13:00:30.027Z,100323.37
2023-03-17T13:03:32.662Z,100319.55
2023-03-17T13:06:06.095Z,100319.25
2023-03-17T13:08:41.532Z,100315.05
2023-03-17T13:11:38.408Z,100318.45
2023-03-17T13:14:28.276Z,100311.41
2023-03-17T13:17:29.230Z,100315.92
2023-03-17T13:20:12.963Z,100311.10
2023-03-17T13:22:46.714Z,100316.30
2023-03-17T13:25:27.757Z,100310.36
2023-03-17T13:28:17.705Z,100310.08
2023-03-17T13:30:57.642Z,100304.02
2023-03-17T13:33:32.922Z,100301.50
2023-03-17T13:36:36.813Z,100287.17
2023-03-17T13:39:57.626Z,100281.61
2023-03-17T13:43:01.937Z,100272.55
2023-03-17T13:45:41.741Z,100270.45
2023-03-17T13:48:30.742Z,100275.92
2023-03-17T13:51:14.978Z,100274.96
2023-03-17T13:54:12.050Z,100281.55
2023-03-17T13:56:47.258Z,100279.35
2023-03-17T13:59:20.480Z,100271.74
2023-03-17T14:02:07.218Z,100269.20
2023-03-17T14:05:09.057Z,100277.85
2023-03-17T14:08:02.310Z,100277.55
2023-03-17T14:10:33.251Z,100281.17
2023-03-17T14:13:21.082Z,100274.84
2023-03-17T14:16:11.181Z,100279.45
2023-03-17T14:18:42.926Z,100275.25
2023-03-17T14:21:30.192Z,100269.45
2023-03-17T14:24:01.274Z,100271.95
2023-03-17T14:26:31.616Z,100258.69
2023-03-17T14:29:02.984Z,100260.70
2023-03-17T14:31:31.619Z,100254.11
2023-03-17T14:34:01.782Z,100254.05
2023-03-17T14:36:33.863Z,100245.95
2023-03-17T14:39:03.546Z,100240.19
2023-03-17T14:41:35.283Z,100235.25
2023-03-17T14:44:06.984Z,100240.73
2023-03-17T14:46:37.656Z,100237.11
2023-03-17T14:49:20.871Z,100240.72
2023-03-17T14:51:51.665Z,100231.20
2023-03-17T14:54:24.304Z,100228.40
2023-03-17T14:57:02.457Z,100231.23
2023-03-17T14:59:35.843Z,100222.99
2023-03-17T15:02:21.667Z,100223.84
2023-03-17T15:04:53.825Z,100222.59
2023-03-17T15:07:48.592Z,100218.73
2023-03-17T15:10:19.843Z,100218.23
2023-03-17T15:12:49.142Z,100211.38
2023-03-17T15:15:30.318Z,100208.63
2023-03-17T15:18:01.818Z,100208.77
2023-03-17T15:20:33.273Z,100202.98
2023-03-17T15:23:16.068Z,100202.55
2023-03-17T15:25:52.128Z,100201.23
2023-03-17T15:28:22.414Z,100197.13
2023-03-17T15:30:53.702Z,100200.10
2023-03-17T15:33:30.939Z,100198.30
2023-03-17T15:36:00.662Z,100199.08
2023-03-17T15:38:29.887Z,100196.31
2023-03-17T15:40:58.651Z,100197.52
2023-03-17T15:43:27.550Z,100196.45
2023-03-17T15:46:03.335Z,100194.87
2023-03-17T15:48:36.442Z,100194.10
2023-03-17T15:51:06.267Z,100194.16
2023-03-17T15:53:34.893Z,100195.91
2023-03-17T15:56:03.547Z,100193.92
2023-03-17T15:58:33.689Z,100192.83
2023-03-17T16:01:03.956Z,100194.67
2023-03-17T16:03:42.233Z,100193.30
2023-03-17T16:06:18.218Z,100191.89
2023-03-17T16:08:48.173Z,100190.31
2023-03-17T16:11:28.583Z,100188.20
2023-03-17T16:13:59.464Z,100185.96
2023-03-17T16:16:46.104Z,100183.80
2023-03-17T16:19:22.289Z,100188.15
2023-03-17T16:21:51.547Z,100183.67
2023-03-17T16:24:23.258Z,100186.88
2023-03-17T16:26:53.535Z,100185.52
2023-03-17T16:29:22.193Z,100186.44
2023-03-17T16:31:51.800Z,100183.89
2023-03-17T16:34:23.013Z,100184.16
2023-03-17T16:36:51.768Z,100185.71
2023-03-17T16:39:23.500Z,100191.27
2023-03-17T16:41:53.817Z,100194.48
2023-03-17T16:44:23.869Z,100192.02
2023-03-17T16:46:53.966Z,100195.17
2023-03-17T16:49:23.372Z,100195.98
2023-03-17T16:51:52.137Z,100197.36
2023-03-17T16:54:20.949Z,100196.44
2023-03-17T16:56:52.053Z,100195.36
2023-03-17T16:59:25.163Z,100194.98
2023-03-17T17:01:55.306Z,100196.14
2023-03-17T17:04:25.304Z,100196.86
2023-03-17T17:06:56.143Z,100195.62
2023-03-17T17:09:26.887Z,100192.40
2023-03-17T17:11:56.389Z,100188.74
2023-03-17T17:14:25.790Z,100192.23
2023-03-17T17:16:55.470Z,100198.33
2023-03-17T17:19:25.404Z,100201.56
2023-03-17T17:21:59.901Z,100209.97
2023-03-17T17:24:30.638Z,100213.30
2023-03-17T17:27:00.291Z,100217.11
2023-03-17T17:29:32.267Z,100217.41
2023-03-17T17:32:02.271Z,100212.36
2023-03-17T17:34:33.740Z,100207.85
2023-03-17T17:37:04.039Z,100205.09
2023-03-17T17:39:35.090Z,100209.64
2023-03-17T17:42:06.177Z,100212.59
2023-03-17T17:44:37.172Z,100211.60
2023-03-17T17:47:09.965Z,100211.56
2023-03-17T17:49:43.769Z,100214.98
2023-03-17T17:52:18.658Z,100213.00
2023-03-17T17:54:49.960Z,100217.48
2023-03-17T17:57:20.389Z,100221.96
2023-03-17T17:59:51.370Z,100223.77
2023-03-17T18:02:23.329Z,100220.63
2023-03-17T18:04:54.545Z,100216.80
2023-03-17T18:07:27.441Z,100213.86
2023-03-17T18:09:59.924Z,100213.48
2023-03-17T18:12:30.315Z,100212.20
2023-03-17T18:15:00.806Z,100213.59
2023-03-17T18:17:33.037Z,100213.27
2023-03-17T18:20:11.782Z,100211.14
2023-03-17T18:22:44.101Z,100200.48
2023-03-17T18:25:16.705Z,100194.21
2023-03-17T18:27:49.243Z,100192.67
2023-03-17T18:30:24.150Z,100194.70
2023-03-17T18:33:03.886Z,100193.10
2023-03-17T18:35:36.757Z,100191.66
2023-03-17T18:38:08.524Z,100191.66
2023-03-17T18:40:39.217Z,100192.48
2023-03-17T18:43:09.822Z,100193.48
2023-03-17T18:45:40.729Z,100194.59
2023-03-17T18:48:13.419Z,100194.11
2023-03-17T18:50:45.787Z,100195.42
2023-03-17T18:53:16.921Z,100194.47
2023-03-17T18:55:48.292Z,100189.20
2023-03-17T18:58:19.914Z,100191.02
2023-03-17T19:00:52.259Z,100190.44
2023-03-17T19:03:23.501Z,100188.04
2023-03-17T19:05:54.613Z,100187.29
2023-03-17T19:08:27.691Z,100185.91
2023-03-17T19:10:58.714Z,100188.57
2023-03-17T19:13:29.436Z,100186.75
2023-03-17T19:16:00.092Z,100191.00
2023-03-17T19:18:30.712Z,100190.17
2023-03-17T19:21:01.793Z,100190.71
2023-03-17T19:23:34.087Z,100189.17
2023-03-17T19:26:06.446Z,100187.21
2023-03-17T19:28:38.446Z,100185.81
2023-03-17T19:31:09.310Z,100186.92
2023-03-17T19:33:45.300Z,100188.98
2023-03-17T19:36:15.888Z,100190.36
2023-03-17T19:38:46.102Z,100186.91
2023-03-17T19:41:17.307Z,100187.62
2023-03-17T19:43:50.771Z,100186.08
2023-03-17T19:46:20.701Z,100185.64
2023-03-17T19:48:51.030Z,100193.48
2023-03-17T19:51:24.036Z,100192.79
2023-03-17T19:53:57.404Z,100191.52
2023-03-17T19:56:33.358Z,100192.77
2023-03-17T19:59:07.741Z,100191.48
2023-03-17T20:01:39.925Z,100191.61
2023-03-17T20:04:14.829Z,100198.51
2023-03-17T20:06:45.456Z,100196.45
2023-03-17T20:09:20.081Z,100199.03
2023-03-17T20:11:54.642Z,100201.30
2023-03-17T20:14:26.191Z,100197.53
2023-03-17T20:16:57.693Z,100192.67
2023-03-17T20:19:29.099Z,100184.02
2023-03-17T20:21:59.975Z,100178.46
2023-03-17T20:24:35.351Z,100178.11
2023-03-17T20:27:08.841Z,100178.15
2023-03-17T20:29:40.477Z,100175.95
2023-03-17T20:32:12.077Z,100173.07
2023-03-17T20:34:45.715Z,100174.34
2023-03-17T20:37:16.842Z,100170.94
2023-03-17T20:39:48.894Z,100172.69
2023-03-17T20:42:20.748Z,100169.17
2023-03-17T20:44:55.329Z,100170.46
2023-03-17T20:47:29.608Z,100169.61
2023-03-17T20:50:01.613Z,100166.38
2023-03-17T20:52:35.500Z,100167.97
2023-03-17T20:55:09.360Z,100167.11
2023-03-17T20:57:39.840Z,100163.67
2023-03-17T21:00:18.723Z,100168.51
2023-03-17T21:02:52.423Z,100169.92
2023-03-17T21:05:26.362Z,100165.25
2023-03-17T21:07:57.433Z,100167.17
2023-03-17T21:10:33.013Z,100162.84
2023-03-17T21:13:03.530Z,100158.13
2023-03-17T21:15:33.483Z,100156.60
2023-03-17T21:18:03.129Z,100159.56
2023-03-17T21:20:36.996Z,100158.83
2023-03-17T21:23:08.187Z,100153.63
2023-03-17T21:25:39.229Z,100154.79
2023-03-17T21:28:11.527Z,100152.16
2023-03-17T21:30:44.388Z,100150.02
2023-03-17T21:33:17.329Z,100146.11
2023-03-17T21:35:48.415Z,100141.34
2023-03-17T21:38:20.855Z,100138.17
2023-03-17T21:40:58.746Z,100139.41
2023-03-17T21:43:29.705Z,100140.27
2023-03-17T21:45:59.159Z,100134.53
2023-03-17T21:48:28.623Z,100136.20
2023-03-17T21:50:58.640Z,100136.48
2023-03-17T21:53:27.339Z,100132.59
2023-03-17T21:55:57.043Z,100127.05
2023-03-17T21:58:26.456Z,100125.91
2023-03-17T22:00:55.146Z,100116.73
2023-03-17T22:03:24.992Z,100115.24
2023-03-17T22:05:53.841Z,100115.44
2023-03-17T22:08:23.047Z,100115.30
2023-03-17T22:10:52.946Z,100122.13
2023-03-17T22:13:21.634Z,100121.90
2023-03-17T22:15:50.323Z,100119.36
2023-03-17T22:18:19.099Z,100120.20
2023-03-17T22:20:48.840Z,100119.10
2023-03-17T22:23:17.727Z,100118.61
2023-03-17T22:25:47.005Z,100114.04
2023-03-17T22:28:16.003Z,100110.60
2023-03-17T22:30:46.417Z,100113.29
2023-03-17T22:33:15.628Z,100115.84
2023-03-17T22:35:44.651Z,100118.32
2023-03-17T22:38:13.629Z,100121.54
2023-03-17T22:40:42.304Z,100121.92
2023-03-17T22:43:11.604Z,100117.28
2023-03-17T22:45:40.537Z,100115.14
2023-03-17T22:48:09.265Z,100111.36
2023-03-17T22:50:38.064Z,100105.94
2023-03-17T22:53:06.748Z,100099.34
2023-03-17T22:55:36.468Z,100097.87
2023-03-17T22:58:05.405Z,100091.12
2023-03-17T23:00:34.044Z,100092.17
2023-03-17T23:03:03.333Z,100092.80
2023-03-17T23:05:31.931Z,100095.02
2023-03-17T23:08:01.945Z,100092.44
2023-03-17T23:10:33.779Z,100094.55
2023-03-17T23:13:02.711Z,100089.70
2023-03-17T23:15:31.633Z,100090.42
2023-03-17T23:18:01.286Z,100086.99
2023-03-17T23:20:30.690Z,100090.48
2023-03-17T23:22:59.680Z,100093.20
2023-03-17T23:25:28.268Z,100093.01
2023-03-17T23:27:57.355Z,100094.27
2023-03-17T23:30:26.460Z,100093.17
2023-03-17T23:32:56.006Z,100089.30
2023-03-17T23:35:25.494Z,100091.67
2023-03-17T23:37:54.347Z,100093.27
2023-03-17T23:40:24.252Z,100090.64
2023-03-17T23:42:54.777Z,100095.50
2023-03-17T23:45:23.670Z,100097.81
2023-03-17T23:47:53.381Z,100093.27
2023-03-17T23:50:22.381Z,100093.74
2023-03-17T23:52:50.977Z,100091.23
2023-03-17T23:55:19.847Z,100090.05
2023-03-17T23:57:49.681Z,100086.88
